sensor_id;sensor_type;location;lat;lon;timestamp;pressure;altitude;pressure_sealevel;temperature;humidity
47706;BME280;33471;52.104;1.318;2023-02-03T00:02:25;102237.97;;;8.81;55.23
47706;BME280;33471;52.104;1.318;2023-02-03T00:04:52;102242.52;;;8.79;55.17
47706;BME280;33471;52.104;1.318;2023-02-03T00:07:19;102235.91;;;8.68;55.79
47706;BME280;33471;52.104;1.318;2023-02-03T00:09:47;102238.29;;;8.80;55.44
47706;BME280;33471;52.104;1.318;2023-02-03T00:12:14;102235.76;;;8.46;56.24
47706;BME280;33471;52.104;1.318;2023-02-03T00:14:41;102240.65;;;7.96;57.97
47706;BME280;33471;52.104;1.318;2023-02-03T00:17:09;102233.67;;;8.09;57.43
47706;BME280;33471;52.104;1.318;2023-02-03T00:19:36;102228.34;;;8.18;57.05
47706;BME280;33471;52.104;1.318;2023-02-03T00:22:03;102233.44;;;8.84;55.46
47706;BME280;33471;52.104;1.318;2023-02-03T00:24:30;102244.71;;;8.67;56.43
47706;BME280;33471;52.104;1.318;2023-02-03T00:26:58;102257.21;;;8.69;55.92
47706;BME280;33471;52.104;1.318;2023-02-03T00:29:25;102257.24;;;8.83;54.91
47706;BME280;33471;52.104;1.318;2023-02-03T00:31:52;102272.46;;;7.65;57.92
47706;BME280;33471;52.104;1.318;2023-02-03T00:34:19;102277.91;;;8.74;56.30
47706;BME280;33471;52.104;1.318;2023-02-03T00:36:47;102280.58;;;8.91;54.66
47706;BME280;33471;52.104;1.318;2023-02-03T00:39:14;102270.79;;;8.30;55.97
47706;BME280;33471;52.104;1.318;2023-02-03T00:41:41;102268.37;;;9.23;54.16
47706;BME280;33471;52.104;1.318;2023-02-03T00:44:08;102262.23;;;9.26;53.67
47706;BME280;33471;52.104;1.318;2023-02-03T00:46:36;102267.38;;;9.17;53.78
47706;BME280;33471;52.104;1.318;2023-02-03T00:49:03;102258.22;;;8.68;55.16
47706;BME280;33471;52.104;1.318;2023-02-03T00:51:31;102256.29;;;9.21;54.01
47706;BME280;33471;52.104;1.318;2023-02-03T00:53:58;102261.04;;;7.76;57.55
47706;BME280;33471;52.104;1.318;2023-02-03T00:56:25;102263.57;;;7.72;57.85
47706;BME280;33471;52.104;1.318;2023-02-03T00:58:52;102256.14;;;7.78;57.51
47706;BME280;33471;52.104;1.318;2023-02-03T01:01:19;102255.30;;;8.57;55.44
47706;BME280;33471;52.104;1.318;2023-02-03T01:03:47;102262.96;;;8.29;55.92
47706;BME280;33471;52.104;1.318;2023-02-03T01:06:16;102260.33;;;8.06;56.70
47706;BME280;33471;52.104;1.318;2023-02-03T01:08:44;102261.76;;;9.05;54.26
47706;BME280;33471;52.104;1.318;2023-02-03T01:11:13;102250.67;;;8.04;56.67
47706;BME280;33471;52.104;1.318;2023-02-03T01:13:40;102268.23;;;7.30;59.17
47706;BME280;33471;52.104;1.318;2023-02-03T01:16:08;102254.72;;;8.21;57.03
47706;BME280;33471;52.104;1.318;2023-02-03T01:18:36;102245.35;;;8.38;55.78
47706;BME280;33471;52.104;1.318;2023-02-03T01:21:05;102228.64;;;8.49;55.20
47706;BME280;33471;52.104;1.318;2023-02-03T01:23:34;102228.58;;;8.30;55.81
47706;BME280;33471;52.104;1.318;2023-02-03T01:26:03;102231.17;;;8.76;55.17
47706;BME280;33471;52.104;1.318;2023-02-03T01:28:31;102230.21;;;8.14;57.31
47706;BME280;33471;52.104;1.318;2023-02-03T01:31:09;102242.10;;;7.25;59.98
47706;BME280;33471;52.104;1.318;2023-02-03T01:33:39;102226.81;;;8.06;57.50
47706;BME280;33471;52.104;1.318;2023-02-03T01:36:07;102230.14;;;8.11;57.44
47706;BME280;33471;52.104;1.318;2023-02-03T01:38:35;102241.90;;;7.38;58.54
47706;BME280;33471;52.104;1.318;2023-02-03T01:41:04;102235.03;;;8.14;57.21
47706;BME280;33471;52.104;1.318;2023-02-03T01:43:34;102235.74;;;8.24;55.94
47706;BME280;33471;52.104;1.318;2023-02-03T01:46:06;102236.45;;;9.02;54.83
47706;BME280;33471;52.104;1.318;2023-02-03T01:48:43;102230.49;;;8.56;55.88
47706;BME280;33471;52.104;1.318;2023-02-03T01:51:10;102229.01;;;8.24;56.64
47706;BME280;33471;52.104;1.318;2023-02-03T01:53:37;102227.47;;;8.28;57.09
47706;BME280;33471;52.104;1.318;2023-02-03T01:56:05;102240.91;;;8.75;55.11
47706;BME280;33471;52.104;1.318;2023-02-03T01:58:36;102251.26;;;8.00;57.02
47706;BME280;33471;52.104;1.318;2023-02-03T02:01:05;102243.79;;;8.08;56.96
47706;BME280;33471;52.104;1.318;2023-02-03T02:03:36;102234.16;;;8.61;55.86
47706;BME280;33471;52.104;1.318;2023-02-03T02:06:07;102231.10;;;7.78;57.66
47706;BME280;33471;52.104;1.318;2023-02-03T02:08:35;102230.16;;;7.77;58.36
47706;BME280;33471;52.104;1.318;2023-02-03T02:11:04;102219.41;;;8.33;55.95
47706;BME280;33471;52.104;1.318;2023-02-03T02:13:33;102217.34;;;7.56;57.68
47706;BME280;33471;52.104;1.318;2023-02-03T02:16:08;102225.12;;;7.66;57.78
47706;BME280;33471;52.104;1.318;2023-02-03T02:18:48;102231.06;;;7.47;58.51
47706;BME280;33471;52.104;1.318;2023-02-03T02:21:55;102233.51;;;7.91;57.33
47706;BME280;33471;52.104;1.318;2023-02-03T02:25:52;102230.89;;;8.41;57.93
47706;BME280;33471;52.104;1.318;2023-02-03T02:28:48;102220.22;;;7.58;58.04
47706;BME280;33471;52.104;1.318;2023-02-03T02:32:02;102232.86;;;8.55;57.68
47706;BME280;33471;52.104;1.318;2023-02-03T02:34:43;102248.83;;;7.15;59.19
47706;BME280;33471;52.104;1.318;2023-02-03T02:37:21;102230.70;;;7.36;58.71
47706;BME280;33471;52.104;1.318;2023-02-03T02:39:57;102227.06;;;6.66;62.21
47706;BME280;33471;52.104;1.318;2023-02-03T02:42:35;102227.38;;;7.53;59.71
47706;BME280;33471;52.104;1.318;2023-02-03T02:45:08;102242.66;;;6.98;59.54
47706;BME280;33471;52.104;1.318;2023-02-03T02:47:38;102231.09;;;7.36;60.05
47706;BME280;33471;52.104;1.318;2023-02-03T02:50:09;102220.19;;;6.66;60.48
47706;BME280;33471;52.104;1.318;2023-02-03T02:52:40;102227.85;;;7.48;59.88
47706;BME280;33471;52.104;1.318;2023-02-03T02:55:13;102228.08;;;7.40;59.43
47706;BME280;33471;52.104;1.318;2023-02-03T02:57:42;102230.13;;;7.21;60.26
47706;BME280;33471;52.104;1.318;2023-02-03T03:00:12;102226.55;;;7.82;59.10
47706;BME280;33471;52.104;1.318;2023-02-03T03:02:40;102225.09;;;7.57;58.62
47706;BME280;33471;52.104;1.318;2023-02-03T03:05:09;102218.92;;;7.89;57.61
47706;BME280;33471;52.104;1.318;2023-02-03T03:07:41;102212.84;;;7.75;57.83
47706;BME280;33471;52.104;1.318;2023-02-03T03:10:13;102207.89;;;7.73;58.15
47706;BME280;33471;52.104;1.318;2023-02-03T03:12:45;102206.60;;;8.17;56.83
47706;BME280;33471;52.104;1.318;2023-02-03T03:15:18;102211.37;;;7.86;57.71
47706;BME280;33471;52.104;1.318;2023-02-03T03:17:52;102207.77;;;8.07;57.44
47706;BME280;33471;52.104;1.318;2023-02-03T03:20:23;102211.48;;;7.53;57.92
47706;BME280;33471;52.104;1.318;2023-02-03T03:22:55;102216.53;;;7.68;57.90
47706;BME280;33471;52.104;1.318;2023-02-03T03:25:29;102220.08;;;7.87;58.21
47706;BME280;33471;52.104;1.318;2023-02-03T03:28:00;102236.81;;;7.02;59.92
47706;BME280;33471;52.104;1.318;2023-02-03T03:30:33;102242.50;;;7.06;60.56
47706;BME280;33471;52.104;1.318;2023-02-03T03:33:02;102239.87;;;6.99;60.59
47706;BME280;33471;52.104;1.318;2023-02-03T03:35:35;102240.48;;;7.06;60.07
47706;BME280;33471;52.104;1.318;2023-02-03T03:38:08;102245.22;;;6.53;61.59
47706;BME280;33471;52.104;1.318;2023-02-03T03:40:41;102240.32;;;7.23;60.69
47706;BME280;33471;52.104;1.318;2023-02-03T03:43:13;102240.96;;;7.37;60.32
47706;BME280;33471;52.104;1.318;2023-02-03T03:45:46;102220.41;;;8.18;57.86
47706;BME280;33471;52.104;1.318;2023-02-03T03:48:18;102221.40;;;7.29;59.62
47706;BME280;33471;52.104;1.318;2023-02-03T03:50:54;102212.28;;;7.99;58.57
47706;BME280;33471;52.104;1.318;2023-02-03T03:53:25;102224.21;;;7.26;59.78
47706;BME280;33471;52.104;1.318;2023-02-03T03:55:56;102233.46;;;7.83;59.68
47706;BME280;33471;52.104;1.318;2023-02-03T03:58:29;102242.67;;;7.24;60.47
47706;BME280;33471;52.104;1.318;2023-02-03T04:00:59;102235.45;;;7.16;60.11
47706;BME280;33471;52.104;1.318;2023-02-03T04:03:31;102235.63;;;7.30;61.58
47706;BME280;33471;52.104;1.318;2023-02-03T04:05:59;102236.47;;;7.03;60.90
47706;BME280;33471;52.104;1.318;2023-02-03T04:08:27;102246.41;;;7.18;61.41
47706;BME280;33471;52.104;1.318;2023-02-03T04:10:54;102241.30;;;7.07;60.64
47706;BME280;33471;52.104;1.318;2023-02-03T04:13:21;102243.34;;;7.45;59.97
47706;BME280;33471;52.104;1.318;2023-02-03T04:15:48;102237.21;;;7.54;59.64
47706;BME280;33471;52.104;1.318;2023-02-03T04:18:16;102244.39;;;7.58;59.71
47706;BME280;33471;52.104;1.318;2023-02-03T04:20:43;102234.06;;;7.51;59.95
47706;BME280;33471;52.104;1.318;2023-02-03T04:23:10;102230.53;;;8.07;57.66
47706;BME280;33471;52.104;1.318;2023-02-03T04:25:37;102240.18;;;7.44;59.58
47706;BME280;33471;52.104;1.318;2023-02-03T04:28:04;102230.15;;;8.71;56.41
47706;BME280;33471;52.104;1.318;2023-02-03T04:30:32;102235.42;;;7.00;61.09
47706;BME280;33471;52.104;1.318;2023-02-03T04:32:59;102218.07;;;7.52;59.90
47706;BME280;33471;52.104;1.318;2023-02-03T04:35:26;102221.26;;;7.27;60.57
47706;BME280;33471;52.104;1.318;2023-02-03T04:37:53;102227.07;;;7.15;60.95
47706;BME280;33471;52.104;1.318;2023-02-03T04:40:21;102235.37;;;7.16;61.79
47706;BME280;33471;52.104;1.318;2023-02-03T04:42:48;102227.49;;;7.85;59.47
47706;BME280;33471;52.104;1.318;2023-02-03T04:45:15;102228.96;;;6.84;61.68
47706;BME280;33471;52.104;1.318;2023-02-03T04:47:42;102231.65;;;7.40;60.16
47706;BME280;33471;52.104;1.318;2023-02-03T04:50:09;102236.22;;;7.72;60.26
47706;BME280;33471;52.104;1.318;2023-02-03T04:52:37;102250.62;;;7.12;62.50
47706;BME280;33471;52.104;1.318;2023-02-03T04:55:05;102263.03;;;7.19;61.48
47706;BME280;33471;52.104;1.318;2023-02-03T04:57:32;102281.57;;;7.18;61.83
47706;BME280;33471;52.104;1.318;2023-02-03T04:59:59;102287.04;;;7.09;62.28
47706;BME280;33471;52.104;1.318;2023-02-03T05:02:26;102285.68;;;6.74;62.54
47706;BME280;33471;52.104;1.318;2023-02-03T05:04:53;102283.66;;;6.86;63.67
47706;BME280;33471;52.104;1.318;2023-02-03T05:07:20;102291.34;;;7.70;61.55
47706;BME280;33471;52.104;1.318;2023-02-03T05:09:47;102286.60;;;7.50;61.06
47706;BME280;33471;52.104;1.318;2023-02-03T05:12:14;102276.70;;;7.64;60.11
47706;BME280;33471;52.104;1.318;2023-02-03T05:14:42;102270.26;;;8.45;58.09
47706;BME280;33471;52.104;1.318;2023-02-03T05:17:09;102269.74;;;8.13;58.97
47706;BME280;33471;52.104;1.318;2023-02-03T05:19:36;102269.17;;;7.66;60.71
47706;BME280;33471;52.104;1.318;2023-02-03T05:22:03;102262.91;;;7.89;59.68
47706;BME280;33471;52.104;1.318;2023-02-03T05:24:30;102272.69;;;8.08;59.73
47706;BME280;33471;52.104;1.318;2023-02-03T05:26:57;102271.70;;;7.53;61.04
47706;BME280;33471;52.104;1.318;2023-02-03T05:29:24;102275.23;;;8.48;58.76
47706;BME280;33471;52.104;1.318;2023-02-03T05:31:52;102274.92;;;8.54;58.45
47706;BME280;33471;52.104;1.318;2023-02-03T05:34:19;102279.89;;;9.02;56.63
47706;BME280;33471;52.104;1.318;2023-02-03T05:36:46;102285.33;;;8.24;58.54
47706;BME280;33471;52.104;1.318;2023-02-03T05:39:13;102287.93;;;7.40;61.07
47706;BME280;33471;52.104;1.318;2023-02-03T05:41:40;102284.78;;;8.24;59.08
47706;BME280;33471;52.104;1.318;2023-02-03T05:44:08;102289.73;;;7.80;60.08
47706;BME280;33471;52.104;1.318;2023-02-03T05:46:35;102289.76;;;8.22;59.01
47706;BME280;33471;52.104;1.318;2023-02-03T05:49:02;102309.09;;;7.73;60.26
47706;BME280;33471;52.104;1.318;2023-02-03T05:51:29;102316.89;;;7.17;61.77
47706;BME280;33471;52.104;1.318;2023-02-03T05:53:56;102308.64;;;7.04;61.88
47706;BME280;33471;52.104;1.318;2023-02-03T05:56:23;102313.68;;;6.97;62.41
47706;BME280;33471;52.104;1.318;2023-02-03T05:58:50;102324.65;;;7.35;61.59
47706;BME280;33471;52.104;1.318;2023-02-03T06:01:18;102321.68;;;8.56;58.65
47706;BME280;33471;52.104;1.318;2023-02-03T06:03:45;102326.65;;;7.93;59.71
47706;BME280;33471;52.104;1.318;2023-02-03T06:06:12;102322.24;;;8.34;59.10
47706;BME280;33471;52.104;1.318;2023-02-03T06:08:39;102325.46;;;8.35;58.95
47706;BME280;33471;52.104;1.318;2023-02-03T06:11:07;102316.15;;;7.93;59.50
47706;BME280;33471;52.104;1.318;2023-02-03T06:13:34;102319.21;;;7.35;61.51
47706;BME280;33471;52.104;1.318;2023-02-03T06:16:02;102305.31;;;8.25;59.20
47706;BME280;33471;52.104;1.318;2023-02-03T06:18:29;102284.74;;;8.68;58.23
47706;BME280;33471;52.104;1.318;2023-02-03T06:20:56;102282.32;;;8.71;57.29
47706;BME280;33471;52.104;1.318;2023-02-03T06:23:23;102289.91;;;8.16;59.15
47706;BME280;33471;52.104;1.318;2023-02-03T06:25:51;102294.13;;;7.37;60.56
47706;BME280;33471;52.104;1.318;2023-02-03T06:28:18;102291.19;;;8.12;59.23
47706;BME280;33471;52.104;1.318;2023-02-03T06:30:48;102281.25;;;7.67;60.46
47706;BME280;33471;52.104;1.318;2023-02-03T06:33:16;102269.82;;;7.68;60.16
47706;BME280;33471;52.104;1.318;2023-02-03T06:35:43;102267.52;;;7.85;59.93
47706;BME280;33471;52.104;1.318;2023-02-03T06:38:10;102260.25;;;7.59;61.66
47706;BME280;33471;52.104;1.318;2023-02-03T06:40:38;102260.58;;;7.19;62.54
47706;BME280;33471;52.104;1.318;2023-02-03T06:43:05;102259.64;;;7.35;61.49
47706;BME280;33471;52.104;1.318;2023-02-03T06:45:32;102265.19;;;7.67;61.40
47706;BME280;33471;52.104;1.318;2023-02-03T06:48:00;102274.48;;;7.46;60.93
47706;BME280;33471;52.104;1.318;2023-02-03T06:50:27;102277.67;;;8.08;59.45
47706;BME280;33471;52.104;1.318;2023-02-03T06:52:54;102276.91;;;7.94;59.88
47706;BME280;33471;52.104;1.318;2023-02-03T06:55:21;102277.19;;;8.35;59.01
47706;BME280;33471;52.104;1.318;2023-02-03T06:57:48;102296.81;;;7.94;59.68
47706;BME280;33471;52.104;1.318;2023-02-03T07:00:17;102308.73;;;7.75;60.20
47706;BME280;33471;52.104;1.318;2023-02-03T07:02:44;102303.04;;;8.14;59.45
47706;BME280;33471;52.104;1.318;2023-02-03T07:05:11;102308.00;;;8.68;57.50
47706;BME280;33471;52.104;1.318;2023-02-03T07:07:38;102322.96;;;7.78;60.20
47706;BME280;33471;52.104;1.318;2023-02-03T07:10:08;102324.54;;;7.89;59.94
47706;BME280;33471;52.104;1.318;2023-02-03T07:12:35;102322.81;;;7.86;60.06
47706;BME280;33471;52.104;1.318;2023-02-03T07:15:03;102316.32;;;8.53;57.87
47706;BME280;33471;52.104;1.318;2023-02-03T07:17:30;102332.01;;;8.72;58.07
47706;BME280;33471;52.104;1.318;2023-02-03T07:19:58;102341.63;;;8.34;59.04
47706;BME280;33471;52.104;1.318;2023-02-03T07:22:25;102348.88;;;8.06;59.70
47706;BME280;33471;52.104;1.318;2023-02-03T07:24:52;102355.71;;;8.18;59.34
47706;BME280;33471;52.104;1.318;2023-02-03T07:27:19;102352.67;;;8.45;59.16
47706;BME280;33471;52.104;1.318;2023-02-03T07:29:46;102348.86;;;8.44;59.00
47706;BME280;33471;52.104;1.318;2023-02-03T07:32:13;102349.94;;;8.22;58.98
47706;BME280;33471;52.104;1.318;2023-02-03T07:34:41;102333.81;;;7.90;60.35
47706;BME280;33471;52.104;1.318;2023-02-03T07:37:08;102322.52;;;7.80;60.49
47706;BME280;33471;52.104;1.318;2023-02-03T07:39:35;102303.29;;;7.81;60.93
47706;BME280;33471;52.104;1.318;2023-02-03T07:42:02;102303.54;;;7.62;61.05
47706;BME280;33471;52.104;1.318;2023-02-03T07:44:29;102317.84;;;8.38;58.54
47706;BME280;33471;52.104;1.318;2023-02-03T07:46:57;102343.62;;;8.00;60.71
47706;BME280;33471;52.104;1.318;2023-02-03T07:49:24;102341.02;;;8.47;59.32
47706;BME280;33471;52.104;1.318;2023-02-03T07:51:51;102348.52;;;8.68;58.69
47706;BME280;33471;52.104;1.318;2023-02-03T07:54:18;102351.50;;;8.60;59.02
47706;BME280;33471;52.104;1.318;2023-02-03T07:56:45;102366.20;;;7.94;60.63
47706;BME280;33471;52.104;1.318;2023-02-03T07:59:12;102366.02;;;8.22;59.21
47706;BME280;33471;52.104;1.318;2023-02-03T08:01:39;102354.50;;;8.10;59.62
47706;BME280;33471;52.104;1.318;2023-02-03T08:04:06;102368.00;;;8.41;58.56
47706;BME280;33471;52.104;1.318;2023-02-03T08:06:33;102368.42;;;8.73;58.13
47706;BME280;33471;52.104;1.318;2023-02-03T08:09:01;102384.70;;;8.57;58.59
47706;BME280;33471;52.104;1.318;2023-02-03T08:11:29;102391.27;;;9.24;56.35
47706;BME280;33471;52.104;1.318;2023-02-03T08:13:55;102409.04;;;8.71;57.82
47706;BME280;33471;52.104;1.318;2023-02-03T08:16:23;102412.77;;;8.50;58.80
47706;BME280;33471;52.104;1.318;2023-02-03T08:18:50;102408.79;;;8.51;57.19
47706;BME280;33471;52.104;1.318;2023-02-03T08:21:17;102410.10;;;9.67;55.48
47706;BME280;33471;52.104;1.318;2023-02-03T08:23:44;102430.34;;;8.46;58.19
47706;BME280;33471;52.104;1.318;2023-02-03T08:26:11;102434.93;;;8.20;59.84
47706;BME280;33471;52.104;1.318;2023-02-03T08:28:38;102425.13;;;8.00;60.83
47706;BME280;33471;52.104;1.318;2023-02-03T08:31:09;102418.32;;;7.89;60.69
47706;BME280;33471;52.104;1.318;2023-02-03T08:33:37;102413.08;;;8.45;59.50
47706;BME280;33471;52.104;1.318;2023-02-03T08:36:05;102419.99;;;7.87;61.44
47706;BME280;33471;52.104;1.318;2023-02-03T08:38:32;102423.32;;;7.72;61.00
47706;BME280;33471;52.104;1.318;2023-02-03T08:40:59;102438.86;;;7.83;60.81
47706;BME280;33471;52.104;1.318;2023-02-03T08:43:26;102452.42;;;8.48;58.63
47706;BME280;33471;52.104;1.318;2023-02-03T08:45:54;102451.19;;;8.21;60.29
47706;BME280;33471;52.104;1.318;2023-02-03T08:48:21;102445.08;;;8.60;58.61
47706;BME280;33471;52.104;1.318;2023-02-03T08:50:48;102436.17;;;8.75;58.65
47706;BME280;33471;52.104;1.318;2023-02-03T08:53:16;102436.79;;;8.49;58.91
47706;BME280;33471;52.104;1.318;2023-02-03T08:55:43;102456.15;;;8.42;59.97
47706;BME280;33471;52.104;1.318;2023-02-03T08:58:10;102470.18;;;8.01;60.81
47706;BME280;33471;52.104;1.318;2023-02-03T09:00:37;102456.19;;;8.70;59.34
47706;BME280;33471;52.104;1.318;2023-02-03T09:03:04;102445.88;;;8.35;59.78
47706;BME280;33471;52.104;1.318;2023-02-03T09:05:32;102438.29;;;8.83;58.51
47706;BME280;33471;52.104;1.318;2023-02-03T09:07:59;102443.50;;;9.02;57.90
47706;BME280;33471;52.104;1.318;2023-02-03T09:10:27;102456.46;;;8.40;60.64
47706;BME280;33471;52.104;1.318;2023-02-03T09:12:54;102454.76;;;8.13;61.18
47706;BME280;33471;52.104;1.318;2023-02-03T09:15:21;102455.26;;;8.84;58.95
47706;BME280;33471;52.104;1.318;2023-02-03T09:17:49;102466.00;;;8.59;59.20
47706;BME280;33471;52.104;1.318;2023-02-03T09:20:16;102472.43;;;9.04;58.27
47706;BME280;33471;52.104;1.318;2023-02-03T09:22:43;102490.48;;;8.51;60.21
47706;BME280;33471;52.104;1.318;2023-02-03T09:25:11;102496.80;;;8.49;60.65
47706;BME280;33471;52.104;1.318;2023-02-03T09:27:37;102494.43;;;8.56;60.21
47706;BME280;33471;52.104;1.318;2023-02-03T09:30:05;102507.20;;;8.38;59.95
47706;BME280;33471;52.104;1.318;2023-02-03T09:32:33;102513.71;;;9.02;58.85
47706;BME280;33471;52.104;1.318;2023-02-03T09:35:00;102517.65;;;9.08;58.76
47706;BME280;33471;52.104;1.318;2023-02-03T09:37:28;102513.45;;;9.01;57.82
47706;BME280;33471;52.104;1.318;2023-02-03T09:39:55;102517.94;;;8.94;58.85
47706;BME280;33471;52.104;1.318;2023-02-03T09:42:42;102505.95;;;8.85;58.98
47706;BME280;33471;52.104;1.318;2023-02-03T09:45:21;102513.99;;;8.28;60.26
47706;BME280;33471;52.104;1.318;2023-02-03T09:47:52;102527.26;;;8.66;59.88
47706;BME280;33471;52.104;1.318;2023-02-03T09:50:21;102539.20;;;8.65;59.75
47706;BME280;33471;52.104;1.318;2023-02-03T09:52:50;102546.95;;;8.73;59.85
47706;BME280;33471;52.104;1.318;2023-02-03T09:55:27;102549.00;;;9.20;58.39
47706;BME280;33471;52.104;1.318;2023-02-03T09:58:02;102551.25;;;9.34;58.16
47706;BME280;33471;52.104;1.318;2023-02-03T10:00:34;102545.53;;;9.09;57.61
47706;BME280;33471;52.104;1.318;2023-02-03T10:03:07;102548.59;;;9.08;59.09
47706;BME280;33471;52.104;1.318;2023-02-03T10:05:50;102555.16;;;9.05;58.72
47706;BME280;33471;52.104;1.318;2023-02-03T10:08:30;102557.06;;;9.42;57.54
47706;BME280;33471;52.104;1.318;2023-02-03T10:11:07;102563.30;;;9.60;57.53
47706;BME280;33471;52.104;1.318;2023-02-03T10:13:46;102570.12;;;10.32;55.21
47706;BME280;33471;52.104;1.318;2023-02-03T10:16:27;102586.44;;;10.11;55.35
47706;BME280;33471;52.104;1.318;2023-02-03T10:19:03;102599.17;;;9.69;56.52
47706;BME280;33471;52.104;1.318;2023-02-03T10:21:37;102600.37;;;10.10;55.41
47706;BME280;33471;52.104;1.318;2023-02-03T10:24:12;102590.65;;;10.19;55.33
47706;BME280;33471;52.104;1.318;2023-02-03T10:26:41;102583.50;;;9.77;56.38
47706;BME280;33471;52.104;1.318;2023-02-03T10:29:18;102579.15;;;8.92;58.57
47706;BME280;33471;52.104;1.318;2023-02-03T10:31:46;102581.10;;;9.72;57.70
47706;BME280;33471;52.104;1.318;2023-02-03T10:34:15;102589.27;;;9.81;57.55
47706;BME280;33471;52.104;1.318;2023-02-03T10:36:52;102589.61;;;9.57;57.85
47706;BME280;33471;52.104;1.318;2023-02-03T10:39:28;102592.95;;;9.17;58.85
47706;BME280;33471;52.104;1.318;2023-02-03T10:41:57;102590.61;;;8.72;60.25
47706;BME280;33471;52.104;1.318;2023-02-03T10:44:33;102595.80;;;9.11;58.25
47706;BME280;33471;52.104;1.318;2023-02-03T10:47:16;102599.24;;;10.20;55.92
47706;BME280;33471;52.104;1.318;2023-02-03T10:49:44;102602.60;;;10.67;55.27
47706;BME280;33471;52.104;1.318;2023-02-03T10:52:25;102608.84;;;10.42;55.59
47706;BME280;33471;52.104;1.318;2023-02-03T10:54:53;102608.96;;;10.62;54.13
47706;BME280;33471;52.104;1.318;2023-02-03T10:57:21;102608.94;;;10.07;56.25
47706;BME280;33471;52.104;1.318;2023-02-03T10:59:48;102599.48;;;9.66;57.29
47706;BME280;33471;52.104;1.318;2023-02-03T11:02:22;102593.48;;;10.39;55.30
47706;BME280;33471;52.104;1.318;2023-02-03T11:05:16;102596.13;;;10.25;56.06
47706;BME280;33471;52.104;1.318;2023-02-03T11:07:47;102601.76;;;9.61;57.26
47706;BME280;33471;52.104;1.318;2023-02-03T11:10:33;102604.33;;;9.85;57.17
47706;BME280;33471;52.104;1.318;2023-02-03T11:13:21;102593.36;;;10.22;56.02
47706;BME280;33471;52.104;1.318;2023-02-03T11:15:54;102605.12;;;10.38;55.69
47706;BME280;33471;52.104;1.318;2023-02-03T11:18:35;102606.98;;;10.42;55.40
47706;BME280;33471;52.104;1.318;2023-02-03T11:21:09;102603.82;;;11.13;54.16
47706;BME280;33471;52.104;1.318;2023-02-03T11:23:45;102598.39;;;10.56;54.56
47706;BME280;33471;52.104;1.318;2023-02-03T11:26:15;102594.54;;;10.28;56.17
47706;BME280;33471;52.104;1.318;2023-02-03T11:28:46;102596.89;;;10.16;56.22
47706;BME280;33471;52.104;1.318;2023-02-03T11:31:19;102596.11;;;10.34;56.98
47706;BME280;33471;52.104;1.318;2023-02-03T11:33:52;102610.14;;;10.69;55.44
47706;BME280;33471;52.104;1.318;2023-02-03T11:36:20;102623.02;;;11.43;54.68
47706;BME280;33471;52.104;1.318;2023-02-03T11:38:48;102619.29;;;11.51;53.75
47706;BME280;33471;52.104;1.318;2023-02-03T11:41:18;102614.56;;;10.86;55.34
47706;BME280;33471;52.104;1.318;2023-02-03T11:43:46;102611.46;;;10.87;55.46
47706;BME280;33471;52.104;1.318;2023-02-03T11:46:14;102607.65;;;10.48;56.41
47706;BME280;33471;52.104;1.318;2023-02-03T11:48:53;102614.03;;;9.90;58.71
47706;BME280;33471;52.104;1.318;2023-02-03T11:51:31;102596.99;;;10.44;57.21
47706;BME280;33471;52.104;1.318;2023-02-03T11:54:16;102605.32;;;9.75;58.24
47706;BME280;33471;52.104;1.318;2023-02-03T11:57:01;102604.13;;;10.96;55.05
47706;BME280;33471;52.104;1.318;2023-02-03T11:59:42;102606.05;;;10.26;56.88
47706;BME280;33471;52.104;1.318;2023-02-03T12:03:00;102598.78;;;11.11;57.68
47706;BME280;33471;52.104;1.318;2023-02-03T12:05:39;102614.07;;;10.17;58.31
47706;BME280;33471;52.104;1.318;2023-02-03T12:08:21;102618.80;;;10.18;57.80
47706;BME280;33471;52.104;1.318;2023-02-03T12:11:02;102628.02;;;11.05;56.38
47706;BME280;33471;52.104;1.318;2023-02-03T12:13:49;102630.70;;;11.36;55.60
47706;BME280;33471;52.104;1.318;2023-02-03T12:16:30;102631.31;;;11.23;54.79
47706;BME280;33471;52.104;1.318;2023-02-03T12:19:10;102628.47;;;11.04;55.21
47706;BME280;33471;52.104;1.318;2023-02-03T12:21:43;102620.43;;;10.79;56.38
47706;BME280;33471;52.104;1.318;2023-02-03T12:24:22;102625.81;;;10.53;57.04
47706;BME280;33471;52.104;1.318;2023-02-03T12:26:59;102625.94;;;10.49;57.22
47706;BME280;33471;52.104;1.318;2023-02-03T12:29:30;102634.33;;;10.27;58.07
47706;BME280;33471;52.104;1.318;2023-02-03T12:32:04;102635.86;;;10.74;56.67
47706;BME280;33471;52.104;1.318;2023-02-03T12:34:36;102648.37;;;10.45;57.19
47706;BME280;33471;52.104;1.318;2023-02-03T12:37:07;102638.75;;;10.86;55.74
47706;BME280;33471;52.104;1.318;2023-02-03T12:39:40;102652.92;;;10.60;56.75
47706;BME280;33471;52.104;1.318;2023-02-03T12:42:14;102644.06;;;10.74;57.01
47706;BME280;33471;52.104;1.318;2023-02-03T12:44:49;102646.57;;;10.55;57.14
47706;BME280;33471;52.104;1.318;2023-02-03T12:47:23;102632.58;;;10.94;56.29
47706;BME280;33471;52.104;1.318;2023-02-03T12:49:56;102628.37;;;10.48;57.00
47706;BME280;33471;52.104;1.318;2023-02-03T12:52:29;102637.61;;;11.12;55.44
47706;BME280;33471;52.104;1.318;2023-02-03T12:55:06;102639.92;;;11.27;55.25
47706;BME280;33471;52.104;1.318;2023-02-03T12:57:37;102641.52;;;11.15;55.70
47706;BME280;33471;52.104;1.318;2023-02-03T13:00:18;102645.83;;;10.42;56.79
47706;BME280;33471;52.104;1.318;2023-02-03T13:02:55;102645.09;;;11.27;53.76
47706;BME280;33471;52.104;1.318;2023-02-03T13:05:31;102645.31;;;10.87;55.69
47706;BME280;33471;52.104;1.318;2023-02-03T13:08:06;102640.59;;;11.37;54.56
47706;BME280;33471;52.104;1.318;2023-02-03T13:10:40;102635.62;;;10.80;56.40
47706;BME280;33471;52.104;1.318;2023-02-03T13:13:12;102630.01;;;11.30;55.43
47706;BME280;33471;52.104;1.318;2023-02-03T13:15:44;102623.35;;;11.60;53.58
47706;BME280;33471;52.104;1.318;2023-02-03T13:18:22;102625.10;;;10.90;56.26